Terminal Aerodrome Forecast
Issued by NWS

Home | Current Version | Previous Version | Graphics & Text | Print | Product List | Glossary Off
Versions: 1 2 3 4 5 6 7 8 9 10 11 12 13 14

000
FTUS43 KDDC 090520
TAFGCK
TAF
KGCK 090520Z 0906/1006 VRB05KT P6SM OVC050
     FM091000 14011KT P6SM OVC030
     FM091400 17015G23KT P6SM BKN020
     FM091700 18015G23KT P6SM SCT060
     FM092300 16009KT P6SM FEW120=

USA.gov is the U.S. government's official web portal to all federal, state and local government web resources and services.